sensor_id;sensor_type;location;lat;lon;timestamp;P1;durP1;ratioP1;P2;durP2;ratioP2
7807;SDS011;3949;49.254;8.894;2022-10-16T00:00:34;2.10;;;1.47;;
7807;SDS011;3949;49.254;8.894;2022-10-16T00:03:01;2.57;;;1.40;;
7807;SDS011;3949;49.254;8.894;2022-10-16T00:05:27;1.80;;;1.40;;
7807;SDS011;3949;49.254;8.894;2022-10-16T00:07:53;2.27;;;1.33;;
7807;SDS011;3949;49.254;8.894;2022-10-16T00:10:19;2.10;;;1.90;;
7807;SDS011;3949;49.254;8.894;2022-10-16T00:12:45;2.07;;;1.67;;
7807;SDS011;3949;49.254;8.894;2022-10-16T00:15:11;3.27;;;1.60;;
7807;SDS011;3949;49.254;8.894;2022-10-16T00:17:37;1.80;;;1.70;;
7807;SDS011;3949;49.254;8.894;2022-10-16T00:20:04;2.20;;;1.90;;
7807;SDS011;3949;49.254;8.894;2022-10-16T00:22:30;1.60;;;1.50;;
7807;SDS011;3949;49.254;8.894;2022-10-16T00:24:56;2.53;;;1.90;;
7807;SDS011;3949;49.254;8.894;2022-10-16T00:27:22;3.03;;;1.77;;
7807;SDS011;3949;49.254;8.894;2022-10-16T00:29:51;1.93;;;1.73;;
7807;SDS011;3949;49.254;8.894;2022-10-16T00:32:18;1.70;;;1.60;;
7807;SDS011;3949;49.254;8.894;2022-10-16T00:34:44;2.07;;;1.87;;
7807;SDS011;3949;49.254;8.894;2022-10-16T00:37:10;1.97;;;1.50;;
7807;SDS011;3949;49.254;8.894;2022-10-16T00:39:36;1.57;;;1.47;;
7807;SDS011;3949;49.254;8.894;2022-10-16T00:42:02;1.60;;;1.50;;
7807;SDS011;3949;49.254;8.894;2022-10-16T00:44:42;1.60;;;1.50;;
7807;SDS011;3949;49.254;8.894;2022-10-16T00:47:13;2.03;;;1.57;;
7807;SDS011;3949;49.254;8.894;2022-10-16T00:49:40;1.93;;;1.70;;
7807;SDS011;3949;49.254;8.894;2022-10-16T00:52:07;3.77;;;1.97;;
7807;SDS011;3949;49.254;8.894;2022-10-16T00:54:33;1.50;;;1.40;;
7807;SDS011;3949;49.254;8.894;2022-10-16T00:57:00;1.37;;;1.30;;
7807;SDS011;3949;49.254;8.894;2022-10-16T00:59:30;1.83;;;1.60;;
7807;SDS011;3949;49.254;8.894;2022-10-16T01:01:57;1.73;;;1.57;;
7807;SDS011;3949;49.254;8.894;2022-10-16T01:04:23;2.23;;;1.70;;
7807;SDS011;3949;49.254;8.894;2022-10-16T01:09:34;1.43;;;1.30;;
7807;SDS011;3949;49.254;8.894;2022-10-16T01:16:57;1.73;;;1.57;;
7807;SDS011;3949;49.254;8.894;2022-10-16T01:22:16;1.63;;;1.53;;
7807;SDS011;3949;49.254;8.894;2022-10-16T01:24:46;1.60;;;1.17;;
7807;SDS011;3949;49.254;8.894;2022-10-16T01:27:29;2.07;;;1.40;;
7807;SDS011;3949;49.254;8.894;2022-10-16T01:29:59;1.40;;;1.30;;
7807;SDS011;3949;49.254;8.894;2022-10-16T01:35:09;1.50;;;1.40;;
7807;SDS011;3949;49.254;8.894;2022-10-16T01:40:15;1.40;;;1.30;;
7807;SDS011;3949;49.254;8.894;2022-10-16T01:42:43;1.70;;;1.60;;
7807;SDS011;3949;49.254;8.894;2022-10-16T01:45:12;3.57;;;1.50;;
7807;SDS011;3949;49.254;8.894;2022-10-16T01:47:39;1.30;;;1.20;;
7807;SDS011;3949;49.254;8.894;2022-10-16T01:50:06;7.90;;;1.70;;
7807;SDS011;3949;49.254;8.894;2022-10-16T01:52:34;1.20;;;1.10;;
7807;SDS011;3949;49.254;8.894;2022-10-16T01:55:02;1.87;;;1.27;;
7807;SDS011;3949;49.254;8.894;2022-10-16T01:57:29;2.30;;;1.40;;
7807;SDS011;3949;49.254;8.894;2022-10-16T01:59:56;1.50;;;1.40;;
7807;SDS011;3949;49.254;8.894;2022-10-16T02:02:23;1.83;;;1.33;;
7807;SDS011;3949;49.254;8.894;2022-10-16T02:05:01;1.57;;;1.47;;
7807;SDS011;3949;49.254;8.894;2022-10-16T02:07:30;1.73;;;1.30;;
7807;SDS011;3949;49.254;8.894;2022-10-16T02:09:56;2.60;;;1.40;;
7807;SDS011;3949;49.254;8.894;2022-10-16T02:12:26;1.53;;;1.43;;
7807;SDS011;3949;49.254;8.894;2022-10-16T02:14:53;2.10;;;1.53;;
7807;SDS011;3949;49.254;8.894;2022-10-16T02:17:19;2.30;;;1.27;;
7807;SDS011;3949;49.254;8.894;2022-10-16T02:19:46;3.17;;;1.33;;
7807;SDS011;3949;49.254;8.894;2022-10-16T02:22:55;1.37;;;1.27;;
7807;SDS011;3949;49.254;8.894;2022-10-16T02:27:53;1.20;;;1.10;;
7807;SDS011;3949;49.254;8.894;2022-10-16T02:32:44;1.80;;;1.27;;
7807;SDS011;3949;49.254;8.894;2022-10-16T02:35:12;3.60;;;1.30;;
7807;SDS011;3949;49.254;8.894;2022-10-16T02:37:38;1.40;;;1.30;;
7807;SDS011;3949;49.254;8.894;2022-10-16T02:40:06;3.03;;;1.40;;
7807;SDS011;3949;49.254;8.894;2022-10-16T02:42:33;3.70;;;1.40;;
7807;SDS011;3949;49.254;8.894;2022-10-16T02:44:59;1.87;;;1.37;;
7807;SDS011;3949;49.254;8.894;2022-10-16T02:47:25;3.27;;;1.50;;
7807;SDS011;3949;49.254;8.894;2022-10-16T02:49:51;1.83;;;1.50;;
7807;SDS011;3949;49.254;8.894;2022-10-16T02:52:17;1.83;;;1.30;;
7807;SDS011;3949;49.254;8.894;2022-10-16T02:54:43;1.50;;;1.40;;
7807;SDS011;3949;49.254;8.894;2022-10-16T02:57:09;1.83;;;1.27;;
7807;SDS011;3949;49.254;8.894;2022-10-16T02:59:35;3.07;;;1.30;;
7807;SDS011;3949;49.254;8.894;2022-10-16T03:02:01;1.13;;;1.10;;
7807;SDS011;3949;49.254;8.894;2022-10-16T03:04:27;1.23;;;1.17;;
7807;SDS011;3949;49.254;8.894;2022-10-16T03:06:53;2.83;;;1.50;;
7807;SDS011;3949;49.254;8.894;2022-10-16T03:09:19;3.20;;;1.80;;
7807;SDS011;3949;49.254;8.894;2022-10-16T03:11:44;2.23;;;1.40;;
7807;SDS011;3949;49.254;8.894;2022-10-16T03:14:10;1.30;;;1.20;;
7807;SDS011;3949;49.254;8.894;2022-10-16T03:16:36;1.60;;;1.23;;
7807;SDS011;3949;49.254;8.894;2022-10-16T03:19:02;1.73;;;1.50;;
7807;SDS011;3949;49.254;8.894;2022-10-16T03:21:28;1.13;;;1.07;;
7807;SDS011;3949;49.254;8.894;2022-10-16T03:23:54;1.50;;;1.40;;
7807;SDS011;3949;49.254;8.894;2022-10-16T03:26:20;1.30;;;1.20;;
7807;SDS011;3949;49.254;8.894;2022-10-16T03:28:46;2.37;;;1.30;;
7807;SDS011;3949;49.254;8.894;2022-10-16T03:31:12;4.50;;;1.53;;
7807;SDS011;3949;49.254;8.894;2022-10-16T03:33:38;1.60;;;1.50;;
7807;SDS011;3949;49.254;8.894;2022-10-16T03:36:04;1.40;;;1.30;;
7807;SDS011;3949;49.254;8.894;2022-10-16T03:38:31;2.43;;;1.63;;
7807;SDS011;3949;49.254;8.894;2022-10-16T03:40:57;5.63;;;2.10;;
7807;SDS011;3949;49.254;8.894;2022-10-16T03:43:23;3.83;;;1.70;;
7807;SDS011;3949;49.254;8.894;2022-10-16T03:45:50;1.67;;;1.30;;
7807;SDS011;3949;49.254;8.894;2022-10-16T03:48:16;1.70;;;1.60;;
7807;SDS011;3949;49.254;8.894;2022-10-16T03:50:42;1.10;;;1.10;;
7807;SDS011;3949;49.254;8.894;2022-10-16T03:53:08;2.23;;;1.23;;
7807;SDS011;3949;49.254;8.894;2022-10-16T03:55:35;1.57;;;1.47;;
7807;SDS011;3949;49.254;8.894;2022-10-16T03:58:01;1.90;;;1.37;;
7807;SDS011;3949;49.254;8.894;2022-10-16T04:00:27;2.00;;;1.47;;
7807;SDS011;3949;49.254;8.894;2022-10-16T04:02:53;2.77;;;1.63;;
7807;SDS011;3949;49.254;8.894;2022-10-16T04:05:19;1.77;;;1.50;;
7807;SDS011;3949;49.254;8.894;2022-10-16T04:07:45;1.53;;;1.43;;
7807;SDS011;3949;49.254;8.894;2022-10-16T04:10:11;3.23;;;1.40;;
7807;SDS011;3949;49.254;8.894;2022-10-16T04:12:37;1.60;;;1.50;;
7807;SDS011;3949;49.254;8.894;2022-10-16T04:15:03;2.50;;;1.90;;
7807;SDS011;3949;49.254;8.894;2022-10-16T04:17:29;1.40;;;1.30;;
7807;SDS011;3949;49.254;8.894;2022-10-16T04:19:55;2.37;;;1.27;;
7807;SDS011;3949;49.254;8.894;2022-10-16T04:22:21;1.40;;;1.13;;
7807;SDS011;3949;49.254;8.894;2022-10-16T04:24:47;1.23;;;1.20;;
7807;SDS011;3949;49.254;8.894;2022-10-16T04:27:13;2.00;;;1.20;;
7807;SDS011;3949;49.254;8.894;2022-10-16T04:29:39;1.50;;;1.40;;
7807;SDS011;3949;49.254;8.894;2022-10-16T04:32:05;1.93;;;1.47;;
7807;SDS011;3949;49.254;8.894;2022-10-16T04:34:31;3.43;;;1.60;;
7807;SDS011;3949;49.254;8.894;2022-10-16T04:36:57;8.23;;;1.77;;
7807;SDS011;3949;49.254;8.894;2022-10-16T04:39:23;1.80;;;1.37;;
7807;SDS011;3949;49.254;8.894;2022-10-16T04:41:48;1.70;;;1.60;;
7807;SDS011;3949;49.254;8.894;2022-10-16T04:44:14;1.50;;;1.40;;
7807;SDS011;3949;49.254;8.894;2022-10-16T04:46:40;2.47;;;1.20;;
7807;SDS011;3949;49.254;8.894;2022-10-16T04:49:06;1.73;;;1.30;;
7807;SDS011;3949;49.254;8.894;2022-10-16T04:51:32;2.67;;;1.30;;
7807;SDS011;3949;49.254;8.894;2022-10-16T04:53:58;3.30;;;1.40;;
7807;SDS011;3949;49.254;8.894;2022-10-16T04:56:24;4.30;;;1.60;;
7807;SDS011;3949;49.254;8.894;2022-10-16T04:58:50;1.27;;;1.20;;
7807;SDS011;3949;49.254;8.894;2022-10-16T05:01:16;1.30;;;1.10;;
7807;SDS011;3949;49.254;8.894;2022-10-16T05:03:42;1.37;;;1.20;;
7807;SDS011;3949;49.254;8.894;2022-10-16T05:06:08;1.20;;;1.10;;
7807;SDS011;3949;49.254;8.894;2022-10-16T05:08:34;1.40;;;1.30;;
7807;SDS011;3949;49.254;8.894;2022-10-16T05:11:00;1.97;;;1.30;;
7807;SDS011;3949;49.254;8.894;2022-10-16T05:13:27;1.77;;;1.40;;
7807;SDS011;3949;49.254;8.894;2022-10-16T05:15:53;1.50;;;1.40;;
7807;SDS011;3949;49.254;8.894;2022-10-16T05:18:19;1.50;;;1.40;;
7807;SDS011;3949;49.254;8.894;2022-10-16T05:20:45;1.70;;;1.60;;
7807;SDS011;3949;49.254;8.894;2022-10-16T05:23:11;1.70;;;1.60;;
7807;SDS011;3949;49.254;8.894;2022-10-16T05:25:37;2.63;;;2.40;;
7807;SDS011;3949;49.254;8.894;2022-10-16T05:28:03;2.80;;;2.50;;
7807;SDS011;3949;49.254;8.894;2022-10-16T05:30:29;4.13;;;2.90;;
7807;SDS011;3949;49.254;8.894;2022-10-16T05:32:55;2.53;;;2.00;;
7807;SDS011;3949;49.254;8.894;2022-10-16T05:35:21;3.23;;;2.07;;
7807;SDS011;3949;49.254;8.894;2022-10-16T05:37:47;5.77;;;2.20;;
7807;SDS011;3949;49.254;8.894;2022-10-16T05:40:13;2.47;;;1.70;;
7807;SDS011;3949;49.254;8.894;2022-10-16T05:42:40;1.80;;;1.70;;
7807;SDS011;3949;49.254;8.894;2022-10-16T05:45:06;3.00;;;1.80;;
7807;SDS011;3949;49.254;8.894;2022-10-16T05:47:32;2.13;;;1.90;;
7807;SDS011;3949;49.254;8.894;2022-10-16T05:49:58;2.40;;;2.20;;
7807;SDS011;3949;49.254;8.894;2022-10-16T05:52:24;1.97;;;1.87;;
7807;SDS011;3949;49.254;8.894;2022-10-16T05:54:52;2.13;;;1.67;;
7807;SDS011;3949;49.254;8.894;2022-10-16T05:57:17;2.33;;;1.90;;
7807;SDS011;3949;49.254;8.894;2022-10-16T05:59:43;3.00;;;2.00;;
7807;SDS011;3949;49.254;8.894;2022-10-16T06:02:11;6.87;;;5.97;;
7807;SDS011;3949;49.254;8.894;2022-10-16T06:04:38;4.13;;;3.83;;
7807;SDS011;3949;49.254;8.894;2022-10-16T06:07:04;2.70;;;2.50;;
7807;SDS011;3949;49.254;8.894;2022-10-16T06:09:30;2.40;;;2.20;;
7807;SDS011;3949;49.254;8.894;2022-10-16T06:11:56;2.80;;;2.37;;
7807;SDS011;3949;49.254;8.894;2022-10-16T06:14:22;2.50;;;1.90;;
7807;SDS011;3949;49.254;8.894;2022-10-16T06:16:48;2.43;;;1.80;;
7807;SDS011;3949;49.254;8.894;2022-10-16T06:19:14;3.50;;;2.20;;
7807;SDS011;3949;49.254;8.894;2022-10-16T06:21:41;4.27;;;2.53;;
7807;SDS011;3949;49.254;8.894;2022-10-16T06:24:07;3.70;;;3.40;;
7807;SDS011;3949;49.254;8.894;2022-10-16T06:26:33;2.60;;;2.40;;
7807;SDS011;3949;49.254;8.894;2022-10-16T06:28:59;4.90;;;2.40;;
7807;SDS011;3949;49.254;8.894;2022-10-16T06:31:26;3.63;;;3.33;;
7807;SDS011;3949;49.254;8.894;2022-10-16T06:33:52;3.70;;;1.80;;
7807;SDS011;3949;49.254;8.894;2022-10-16T06:36:18;3.97;;;1.40;;
7807;SDS011;3949;49.254;8.894;2022-10-16T06:38:45;2.40;;;1.57;;
7807;SDS011;3949;49.254;8.894;2022-10-16T06:41:11;1.70;;;1.53;;
7807;SDS011;3949;49.254;8.894;2022-10-16T06:43:38;4.07;;;2.20;;
7807;SDS011;3949;49.254;8.894;2022-10-16T06:46:04;3.60;;;3.30;;
7807;SDS011;3949;49.254;8.894;2022-10-16T06:48:32;3.60;;;3.30;;
7807;SDS011;3949;49.254;8.894;2022-10-16T06:51:02;2.40;;;2.20;;
7807;SDS011;3949;49.254;8.894;2022-10-16T06:53:29;2.67;;;2.40;;
7807;SDS011;3949;49.254;8.894;2022-10-16T06:55:56;2.87;;;2.67;;
7807;SDS011;3949;49.254;8.894;2022-10-16T06:58:22;2.30;;;2.10;;
7807;SDS011;3949;49.254;8.894;2022-10-16T07:00:48;2.10;;;1.90;;
7807;SDS011;3949;49.254;8.894;2022-10-16T07:03:14;8.67;;;7.80;;
7807;SDS011;3949;49.254;8.894;2022-10-16T07:05:41;3.37;;;3.07;;
7807;SDS011;3949;49.254;8.894;2022-10-16T07:08:07;5.40;;;3.10;;
7807;SDS011;3949;49.254;8.894;2022-10-16T07:10:34;2.23;;;2.07;;
7807;SDS011;3949;49.254;8.894;2022-10-16T07:13:00;4.23;;;2.50;;
7807;SDS011;3949;49.254;8.894;2022-10-16T07:15:26;3.50;;;2.03;;
7807;SDS011;3949;49.254;8.894;2022-10-16T07:17:52;2.37;;;2.17;;
7807;SDS011;3949;49.254;8.894;2022-10-16T07:20:18;3.33;;;2.30;;
7807;SDS011;3949;49.254;8.894;2022-10-16T07:22:44;2.00;;;1.90;;
7807;SDS011;3949;49.254;8.894;2022-10-16T07:25:10;2.53;;;2.10;;
7807;SDS011;3949;49.254;8.894;2022-10-16T07:27:36;3.00;;;1.97;;
7807;SDS011;3949;49.254;8.894;2022-10-16T07:30:02;3.80;;;1.77;;
7807;SDS011;3949;49.254;8.894;2022-10-16T07:32:29;2.60;;;1.93;;
7807;SDS011;3949;49.254;8.894;2022-10-16T07:34:54;2.83;;;2.30;;
7807;SDS011;3949;49.254;8.894;2022-10-16T07:37:21;1.73;;;1.57;;
7807;SDS011;3949;49.254;8.894;2022-10-16T07:39:47;2.13;;;1.70;;
7807;SDS011;3949;49.254;8.894;2022-10-16T07:42:13;2.10;;;1.90;;
7807;SDS011;3949;49.254;8.894;2022-10-16T07:44:39;3.13;;;1.97;;
7807;SDS011;3949;49.254;8.894;2022-10-16T07:47:06;2.23;;;1.90;;
7807;SDS011;3949;49.254;8.894;2022-10-16T07:49:32;3.13;;;1.80;;
7807;SDS011;3949;49.254;8.894;2022-10-16T07:51:58;2.97;;;1.80;;
7807;SDS011;3949;49.254;8.894;2022-10-16T07:54:24;1.80;;;1.57;;
7807;SDS011;3949;49.254;8.894;2022-10-16T07:56:50;5.37;;;1.60;;
7807;SDS011;3949;49.254;8.894;2022-10-16T07:59:15;1.67;;;1.50;;
7807;SDS011;3949;49.254;8.894;2022-10-16T08:01:42;1.77;;;1.47;;
7807;SDS011;3949;49.254;8.894;2022-10-16T08:04:08;2.13;;;1.50;;
7807;SDS011;3949;49.254;8.894;2022-10-16T08:06:35;1.50;;;1.37;;
7807;SDS011;3949;49.254;8.894;2022-10-16T08:09:01;2.23;;;1.80;;
7807;SDS011;3949;49.254;8.894;2022-10-16T08:11:28;2.90;;;2.30;;
7807;SDS011;3949;49.254;8.894;2022-10-16T08:13:54;9.10;;;8.20;;
7807;SDS011;3949;49.254;8.894;2022-10-16T08:16:20;3.83;;;2.20;;
7807;SDS011;3949;49.254;8.894;2022-10-16T08:18:46;5.30;;;2.27;;
7807;SDS011;3949;49.254;8.894;2022-10-16T08:21:13;2.40;;;1.83;;
7807;SDS011;3949;49.254;8.894;2022-10-16T08:23:39;3.17;;;2.07;;
7807;SDS011;3949;49.254;8.894;2022-10-16T08:26:05;1.70;;;1.60;;
7807;SDS011;3949;49.254;8.894;2022-10-16T08:28:32;2.40;;;1.67;;
7807;SDS011;3949;49.254;8.894;2022-10-16T08:31:04;2.23;;;1.60;;
7807;SDS011;3949;49.254;8.894;2022-10-16T08:33:30;1.50;;;1.40;;
7807;SDS011;3949;49.254;8.894;2022-10-16T08:35:56;4.17;;;1.50;;
7807;SDS011;3949;49.254;8.894;2022-10-16T08:38:22;2.43;;;1.70;;
7807;SDS011;3949;49.254;8.894;2022-10-16T08:40:48;1.57;;;1.47;;
7807;SDS011;3949;49.254;8.894;2022-10-16T08:46:04;1.70;;;1.50;;
7807;SDS011;3949;49.254;8.894;2022-10-16T08:48:27;2.30;;;1.50;;
7807;SDS011;3949;49.254;8.894;2022-10-16T08:50:55;1.70;;;1.60;;
7807;SDS011;3949;49.254;8.894;2022-10-16T08:53:26;2.67;;;1.77;;
7807;SDS011;3949;49.254;8.894;2022-10-16T08:55:54;1.60;;;1.50;;
7807;SDS011;3949;49.254;8.894;2022-10-16T08:58:21;2.33;;;1.40;;
7807;SDS011;3949;49.254;8.894;2022-10-16T09:00:48;1.90;;;1.80;;
7807;SDS011;3949;49.254;8.894;2022-10-16T09:05:57;1.40;;;1.30;;
7807;SDS011;3949;49.254;8.894;2022-10-16T09:11:17;2.40;;;1.40;;
7807;SDS011;3949;49.254;8.894;2022-10-16T09:16:26;2.40;;;1.60;;
7807;SDS011;3949;49.254;8.894;2022-10-16T09:21:33;2.57;;;1.60;;
7807;SDS011;3949;49.254;8.894;2022-10-16T09:24:08;1.67;;;1.57;;
7807;SDS011;3949;49.254;8.894;2022-10-16T09:26:36;2.80;;;2.03;;
7807;SDS011;3949;49.254;8.894;2022-10-16T09:29:02;1.87;;;1.50;;
7807;SDS011;3949;49.254;8.894;2022-10-16T09:31:28;2.33;;;1.40;;
7807;SDS011;3949;49.254;8.894;2022-10-16T09:33:55;3.27;;;1.60;;
7807;SDS011;3949;49.254;8.894;2022-10-16T09:36:24;3.47;;;1.60;;
7807;SDS011;3949;49.254;8.894;2022-10-16T09:39:01;3.30;;;2.50;;
7807;SDS011;3949;49.254;8.894;2022-10-16T09:41:28;1.80;;;1.70;;
7807;SDS011;3949;49.254;8.894;2022-10-16T09:43:54;6.53;;;4.83;;
7807;SDS011;3949;49.254;8.894;2022-10-16T09:46:31;3.17;;;2.03;;
7807;SDS011;3949;49.254;8.894;2022-10-16T09:49:02;2.53;;;1.70;;
7807;SDS011;3949;49.254;8.894;2022-10-16T09:51:29;2.70;;;2.50;;
7807;SDS011;3949;49.254;8.894;2022-10-16T09:53:56;2.70;;;1.90;;
7807;SDS011;3949;49.254;8.894;2022-10-16T09:56:27;4.30;;;3.10;;
7807;SDS011;3949;49.254;8.894;2022-10-16T09:58:54;3.77;;;1.50;;
7807;SDS011;3949;49.254;8.894;2022-10-16T10:01:21;5.97;;;2.00;;
7807;SDS011;3949;49.254;8.894;2022-10-16T10:03:48;2.13;;;1.33;;
7807;SDS011;3949;49.254;8.894;2022-10-16T10:06:28;1.57;;;1.47;;
7807;SDS011;3949;49.254;8.894;2022-10-16T10:09:03;4.05;;;1.50;;
7807;SDS011;3949;49.254;8.894;2022-10-16T10:14:16;2.25;;;1.45;;
7807;SDS011;3949;49.254;8.894;2022-10-16T10:16:42;3.22;;;1.70;;
7807;SDS011;3949;49.254;8.894;2022-10-16T10:19:22;1.52;;;1.30;;
7807;SDS011;3949;49.254;8.894;2022-10-16T10:21:49;2.50;;;1.52;;
7807;SDS011;3949;49.254;8.894;2022-10-16T10:24:16;3.10;;;1.80;;
7807;SDS011;3949;49.254;8.894;2022-10-16T10:26:48;1.63;;;1.40;;
7807;SDS011;3949;49.254;8.894;2022-10-16T10:32:12;3.17;;;1.20;;
7807;SDS011;3949;49.254;8.894;2022-10-16T10:37:37;1.90;;;1.60;;
7807;SDS011;3949;49.254;8.894;2022-10-16T10:45:27;1.85;;;1.00;;
7807;SDS011;3949;49.254;8.894;2022-10-16T10:50:25;3.58;;;1.30;;
7807;SDS011;3949;49.254;8.894;2022-10-16T11:08:53;2.53;;;1.40;;
7807;SDS011;3949;49.254;8.894;2022-10-16T11:11:24;3.67;;;1.45;;
7807;SDS011;3949;49.254;8.894;2022-10-16T11:16:33;1.63;;;1.38;;
7807;SDS011;3949;49.254;8.894;2022-10-16T11:22:20;1.77;;;1.38;;
7807;SDS011;3949;49.254;8.894;2022-10-16T11:27:39;2.72;;;1.73;;
7807;SDS011;3949;49.254;8.894;2022-10-16T11:30:13;1.40;;;1.30;;
7807;SDS011;3949;49.254;8.894;2022-10-16T11:32:50;2.63;;;1.45;;
7807;SDS011;3949;49.254;8.894;2022-10-16T11:35:19;1.35;;;1.25;;
7807;SDS011;3949;49.254;8.894;2022-10-16T11:37:47;2.25;;;1.42;;
7807;SDS011;3949;49.254;8.894;2022-10-16T11:42:43;4.60;;;1.30;;
7807;SDS011;3949;49.254;8.894;2022-10-16T11:45:46;1.98;;;1.40;;
7807;SDS011;3949;49.254;8.894;2022-10-16T11:48:08;2.15;;;1.17;;
7807;SDS011;3949;49.254;8.894;2022-10-16T11:50:57;2.22;;;1.20;;
7807;SDS011;3949;49.254;8.894;2022-10-16T11:55:53;2.97;;;1.60;;
7807;SDS011;3949;49.254;8.894;2022-10-16T12:01:01;4.65;;;3.83;;
7807;SDS011;3949;49.254;8.894;2022-10-16T12:03:33;3.40;;;1.35;;
7807;SDS011;3949;49.254;8.894;2022-10-16T12:08:25;1.53;;;1.43;;
7807;SDS011;3949;49.254;8.894;2022-10-16T12:10:52;1.57;;;1.47;;
7807;SDS011;3949;49.254;8.894;2022-10-16T12:13:30;2.97;;;1.30;;
7807;SDS011;3949;49.254;8.894;2022-10-16T12:18:38;1.37;;;1.30;;
7807;SDS011;3949;49.254;8.894;2022-10-16T12:21:04;1.30;;;1.20;;
7807;SDS011;3949;49.254;8.894;2022-10-16T12:23:38;2.60;;;1.50;;
7807;SDS011;3949;49.254;8.894;2022-10-16T12:26:05;1.30;;;1.20;;
7807;SDS011;3949;49.254;8.894;2022-10-16T12:28:31;2.53;;;1.50;;
7807;SDS011;3949;49.254;8.894;2022-10-16T12:30:59;3.10;;;1.30;;
7807;SDS011;3949;49.254;8.894;2022-10-16T12:33:27;1.57;;;1.40;;
7807;SDS011;3949;49.254;8.894;2022-10-16T12:35:53;1.70;;;1.30;;
7807;SDS011;3949;49.254;8.894;2022-10-16T12:40:46;1.40;;;1.30;;
7807;SDS011;3949;49.254;8.894;2022-10-16T12:43:35;1.30;;;1.27;;
7807;SDS011;3949;49.254;8.894;2022-10-16T12:46:00;2.70;;;1.33;;
7807;SDS011;3949;49.254;8.894;2022-10-16T12:48:26;1.77;;;1.30;;
7807;SDS011;3949;49.254;8.894;2022-10-16T12:50:53;1.50;;;1.37;;
7807;SDS011;3949;49.254;8.894;2022-10-16T12:53:23;2.60;;;1.63;;
7807;SDS011;3949;49.254;8.894;2022-10-16T13:01:07;2.63;;;1.70;;
7807;SDS011;3949;49.254;8.894;2022-10-16T13:03:58;1.93;;;1.50;;
7807;SDS011;3949;49.254;8.894;2022-10-16T13:06:39;1.50;;;1.40;;
7807;SDS011;3949;49.254;8.894;2022-10-16T13:11:55;1.57;;;1.47;;
7807;SDS011;3949;49.254;8.894;2022-10-16T13:22:05;1.50;;;1.40;;
7807;SDS011;3949;49.254;8.894;2022-10-16T13:24:48;1.70;;;1.60;;
7807;SDS011;3949;49.254;8.894;2022-10-16T13:29:42;1.63;;;1.43;;
7807;SDS011;3949;49.254;8.894;2022-10-16T13:32:09;1.90;;;1.47;;
7807;SDS011;3949;49.254;8.894;2022-10-16T13:34:43;3.40;;;1.50;;
7807;SDS011;3949;49.254;8.894;2022-10-16T13:37:16;4.23;;;3.37;;
7807;SDS011;3949;49.254;8.894;2022-10-16T13:39:43;5.17;;;4.67;;
7807;SDS011;3949;49.254;8.894;2022-10-16T13:42:26;3.57;;;2.70;;
7807;SDS011;3949;49.254;8.894;2022-10-16T13:44:53;3.43;;;2.23;;
7807;SDS011;3949;49.254;8.894;2022-10-16T13:49:45;4.97;;;1.70;;
7807;SDS011;3949;49.254;8.894;2022-10-16T13:52:16;2.30;;;1.87;;
7807;SDS011;3949;49.254;8.894;2022-10-16T13:54:43;1.87;;;1.40;;
7807;SDS011;3949;49.254;8.894;2022-10-16T13:57:12;1.60;;;1.50;;
7807;SDS011;3949;49.254;8.894;2022-10-16T13:59:38;2.10;;;1.60;;
7807;SDS011;3949;49.254;8.894;2022-10-16T14:02:16;1.93;;;1.50;;
7807;SDS011;3949;49.254;8.894;2022-10-16T14:04:44;2.90;;;1.50;;
7807;SDS011;3949;49.254;8.894;2022-10-16T14:07:13;2.57;;;2.37;;
7807;SDS011;3949;49.254;8.894;2022-10-16T14:09:40;3.17;;;2.87;;
7807;SDS011;3949;49.254;8.894;2022-10-16T14:12:10;2.87;;;2.67;;
7807;SDS011;3949;49.254;8.894;2022-10-16T14:14:40;2.47;;;2.27;;
7807;SDS011;3949;49.254;8.894;2022-10-16T14:17:13;4.37;;;2.40;;
7807;SDS011;3949;49.254;8.894;2022-10-16T14:19:39;1.80;;;1.70;;
7807;SDS011;3949;49.254;8.894;2022-10-16T14:22:11;2.40;;;2.20;;
7807;SDS011;3949;49.254;8.894;2022-10-16T14:24:45;1.90;;;1.80;;
7807;SDS011;3949;49.254;8.894;2022-10-16T14:30:20;3.00;;;2.40;;
7807;SDS011;3949;49.254;8.894;2022-10-16T14:33:06;2.90;;;1.80;;
7807;SDS011;3949;49.254;8.894;2022-10-16T14:35:33;2.13;;;1.90;;
7807;SDS011;3949;49.254;8.894;2022-10-16T14:38:00;2.40;;;1.97;;
7807;SDS011;3949;49.254;8.894;2022-10-16T14:40:27;2.47;;;1.80;;
7807;SDS011;3949;49.254;8.894;2022-10-16T14:42:54;2.27;;;1.70;;
7807;SDS011;3949;49.254;8.894;2022-10-16T14:45:21;4.57;;;2.13;;
7807;SDS011;3949;49.254;8.894;2022-10-16T14:47:51;2.57;;;2.37;;
7807;SDS011;3949;49.254;8.894;2022-10-16T14:50:18;2.53;;;2.20;;
7807;SDS011;3949;49.254;8.894;2022-10-16T14:52:44;5.10;;;2.40;;
7807;SDS011;3949;49.254;8.894;2022-10-16T14:55:10;3.60;;;2.37;;
7807;SDS011;3949;49.254;8.894;2022-10-16T14:57:37;4.90;;;3.83;;
7807;SDS011;3949;49.254;8.894;2022-10-16T15:00:08;3.63;;;2.97;;
7807;SDS011;3949;49.254;8.894;2022-10-16T15:02:35;3.53;;;2.73;;
7807;SDS011;3949;49.254;8.894;2022-10-16T15:05:07;3.47;;;2.90;;
7807;SDS011;3949;49.254;8.894;2022-10-16T15:07:36;2.97;;;2.43;;
7807;SDS011;3949;49.254;8.894;2022-10-16T15:10:02;2.70;;;2.07;;
7807;SDS011;3949;49.254;8.894;2022-10-16T15:12:28;4.10;;;2.00;;
7807;SDS011;3949;49.254;8.894;2022-10-16T15:14:54;3.53;;;2.03;;
7807;SDS011;3949;49.254;8.894;2022-10-16T15:17:20;1.90;;;1.70;;
7807;SDS011;3949;49.254;8.894;2022-10-16T15:19:46;2.57;;;1.60;;
7807;SDS011;3949;49.254;8.894;2022-10-16T15:22:12;3.43;;;1.70;;
7807;SDS011;3949;49.254;8.894;2022-10-16T15:24:38;2.97;;;1.60;;
7807;SDS011;3949;49.254;8.894;2022-10-16T15:27:04;1.63;;;1.43;;
7807;SDS011;3949;49.254;8.894;2022-10-16T15:29:30;2.80;;;1.80;;
7807;SDS011;3949;49.254;8.894;2022-10-16T15:31:56;2.70;;;1.90;;
7807;SDS011;3949;49.254;8.894;2022-10-16T15:34:22;1.40;;;1.30;;
7807;SDS011;3949;49.254;8.894;2022-10-16T15:36:48;2.70;;;2.00;;
7807;SDS011;3949;49.254;8.894;2022-10-16T15:39:15;1.53;;;1.40;;
7807;SDS011;3949;49.254;8.894;2022-10-16T15:41:41;1.63;;;1.53;;
7807;SDS011;3949;49.254;8.894;2022-10-16T15:44:07;1.70;;;1.60;;
7807;SDS011;3949;49.254;8.894;2022-10-16T15:46:33;2.50;;;1.70;;
7807;SDS011;3949;49.254;8.894;2022-10-16T15:48:59;2.23;;;1.87;;
7807;SDS011;3949;49.254;8.894;2022-10-16T15:51:26;2.03;;;1.90;;
7807;SDS011;3949;49.254;8.894;2022-10-16T15:53:54;2.33;;;2.03;;
7807;SDS011;3949;49.254;8.894;2022-10-16T15:56:21;6.17;;;5.03;;
7807;SDS011;3949;49.254;8.894;2022-10-16T15:58:48;6.77;;;3.20;;
7807;SDS011;3949;49.254;8.894;2022-10-16T16:01:14;2.70;;;1.97;;
7807;SDS011;3949;49.254;8.894;2022-10-16T16:03:40;3.17;;;1.97;;
7807;SDS011;3949;49.254;8.894;2022-10-16T16:06:07;3.23;;;2.77;;
7807;SDS011;3949;49.254;8.894;2022-10-16T16:08:33;2.67;;;2.30;;
7807;SDS011;3949;49.254;8.894;2022-10-16T16:11:00;10.00;;;7.50;;
7807;SDS011;3949;49.254;8.894;2022-10-16T16:13:26;5.43;;;4.03;;
7807;SDS011;3949;49.254;8.894;2022-10-16T16:15:53;7.90;;;5.20;;
7807;SDS011;3949;49.254;8.894;2022-10-16T16:18:19;14.40;;;8.63;;
7807;SDS011;3949;49.254;8.894;2022-10-16T16:20:45;7.87;;;6.03;;
7807;SDS011;3949;49.254;8.894;2022-10-16T16:23:11;6.10;;;4.97;;
7807;SDS011;3949;49.254;8.894;2022-10-16T16:25:37;6.37;;;5.37;;
7807;SDS011;3949;49.254;8.894;2022-10-16T16:28:03;8.67;;;6.17;;
7807;SDS011;3949;49.254;8.894;2022-10-16T16:30:29;10.00;;;5.97;;
7807;SDS011;3949;49.254;8.894;2022-10-16T16:32:54;5.03;;;2.97;;
7807;SDS011;3949;49.254;8.894;2022-10-16T16:35:20;6.17;;;4.23;;
7807;SDS011;3949;49.254;8.894;2022-10-16T16:37:47;4.33;;;4.00;;
7807;SDS011;3949;49.254;8.894;2022-10-16T16:40:13;4.40;;;3.33;;
7807;SDS011;3949;49.254;8.894;2022-10-16T16:42:39;4.13;;;3.73;;
7807;SDS011;3949;49.254;8.894;2022-10-16T16:45:05;18.17;;;15.10;;
7807;SDS011;3949;49.254;8.894;2022-10-16T16:47:31;12.47;;;11.17;;
7807;SDS011;3949;49.254;8.894;2022-10-16T16:49:57;7.53;;;6.83;;
7807;SDS011;3949;49.254;8.894;2022-10-16T16:52:24;13.97;;;11.70;;
7807;SDS011;3949;49.254;8.894;2022-10-16T16:54:50;10.20;;;8.77;;
7807;SDS011;3949;49.254;8.894;2022-10-16T16:57:19;8.47;;;7.67;;
7807;SDS011;3949;49.254;8.894;2022-10-16T16:59:45;6.40;;;5.53;;
7807;SDS011;3949;49.254;8.894;2022-10-16T17:02:11;16.93;;;15.13;;
7807;SDS011;3949;49.254;8.894;2022-10-16T17:04:37;10.80;;;8.37;;
7807;SDS011;3949;49.254;8.894;2022-10-16T17:07:04;5.50;;;4.53;;
7807;SDS011;3949;49.254;8.894;2022-10-16T17:09:31;5.70;;;5.10;;
7807;SDS011;3949;49.254;8.894;2022-10-16T17:11:57;4.73;;;4.23;;